sensor_id;sensor_type;location;lat;lon;timestamp;pressure;altitude;pressure_sealevel;temperature;humidity
32456;BME280;18912;43.270;27.942;2022-08-19T00:01:45;97701.59;;;24.62;68.03
32456;BME280;18912;43.270;27.942;2022-08-19T00:04:14;97703.44;;;24.53;68.49
32456;BME280;18912;43.270;27.942;2022-08-19T00:06:41;97701.88;;;24.60;67.93
32456;BME280;18912;43.270;27.942;2022-08-19T00:09:10;97702.84;;;24.56;67.69
32456;BME280;18912;43.270;27.942;2022-08-19T00:11:37;97708.97;;;24.53;67.33
32456;BME280;18912;43.270;27.942;2022-08-19T00:14:07;97710.28;;;24.55;67.48
32456;BME280;18912;43.270;27.942;2022-08-19T00:16:33;97711.31;;;24.46;67.34
32456;BME280;18912;43.270;27.942;2022-08-19T00:18:59;97713.38;;;24.54;66.82
32456;BME280;18912;43.270;27.942;2022-08-19T00:21:26;97707.13;;;24.48;66.93
32456;BME280;18912;43.270;27.942;2022-08-19T00:23:52;97706.69;;;24.41;67.23
32456;BME280;18912;43.270;27.942;2022-08-19T00:26:17;97703.34;;;24.44;67.08
32456;BME280;18912;43.270;27.942;2022-08-19T00:28:43;97706.19;;;24.39;66.66
32456;BME280;18912;43.270;27.942;2022-08-19T00:31:09;97708.94;;;24.39;67.02
32456;BME280;18912;43.270;27.942;2022-08-19T00:33:35;97700.88;;;24.29;67.55
32456;BME280;18912;43.270;27.942;2022-08-19T00:36:04;97695.91;;;24.13;67.37
32456;BME280;18912;43.270;27.942;2022-08-19T00:38:32;97694.91;;;24.08;67.44
32456;BME280;18912;43.270;27.942;2022-08-19T00:40:58;97698.88;;;24.02;67.00
32456;BME280;18912;43.270;27.942;2022-08-19T00:43:25;97702.75;;;24.01;66.85
32456;BME280;18912;43.270;27.942;2022-08-19T00:45:51;97699.69;;;24.03;66.90
32456;BME280;18912;43.270;27.942;2022-08-19T00:48:17;97702.38;;;24.08;67.00
32456;BME280;18912;43.270;27.942;2022-08-19T00:50:44;97707.38;;;24.06;67.15
32456;BME280;18912;43.270;27.942;2022-08-19T00:53:15;97704.81;;;24.09;67.35
32456;BME280;18912;43.270;27.942;2022-08-19T00:55:46;97710.66;;;24.08;67.05
32456;BME280;18912;43.270;27.942;2022-08-19T00:58:15;97703.78;;;24.05;67.24
32456;BME280;18912;43.270;27.942;2022-08-19T01:00:42;97716.06;;;24.13;67.10
32456;BME280;18912;43.270;27.942;2022-08-19T01:03:11;97708.91;;;24.12;67.02
32456;BME280;18912;43.270;27.942;2022-08-19T01:05:39;97704.94;;;24.18;66.94
32456;BME280;18912;43.270;27.942;2022-08-19T01:08:06;97707.41;;;24.20;67.49
32456;BME280;18912;43.270;27.942;2022-08-19T01:10:33;97703.09;;;24.14;68.11
32456;BME280;18912;43.270;27.942;2022-08-19T01:13:02;97709.44;;;24.14;67.92
32456;BME280;18912;43.270;27.942;2022-08-19T01:15:34;97702.38;;;24.08;67.99
32456;BME280;18912;43.270;27.942;2022-08-19T01:18:08;97716.16;;;24.08;68.07
32456;BME280;18912;43.270;27.942;2022-08-19T01:20:35;97704.91;;;24.04;68.31
32456;BME280;18912;43.270;27.942;2022-08-19T01:23:01;97703.78;;;24.05;68.37
32456;BME280;18912;43.270;27.942;2022-08-19T01:25:33;97701.75;;;24.11;68.50
32456;BME280;18912;43.270;27.942;2022-08-19T01:28:01;97707.56;;;24.09;68.18
32456;BME280;18912;43.270;27.942;2022-08-19T01:30:32;97703.72;;;23.92;69.63
32456;BME280;18912;43.270;27.942;2022-08-19T01:32:58;97701.47;;;23.94;69.93
32456;BME280;18912;43.270;27.942;2022-08-19T01:35:30;97694.91;;;24.08;68.82
32456;BME280;18912;43.270;27.942;2022-08-19T01:38:01;97696.44;;;24.15;68.33
32456;BME280;18912;43.270;27.942;2022-08-19T01:40:30;97696.84;;;24.08;68.32
32456;BME280;18912;43.270;27.942;2022-08-19T01:42:56;97699.28;;;24.09;68.41
32456;BME280;18912;43.270;27.942;2022-08-19T01:45:24;97694.41;;;24.06;68.12
32456;BME280;18912;43.270;27.942;2022-08-19T01:47:50;97689.16;;;24.05;68.57
32456;BME280;18912;43.270;27.942;2022-08-19T01:50:16;97692.16;;;24.08;68.50
32456;BME280;18912;43.270;27.942;2022-08-19T01:52:43;97696.22;;;24.11;68.71
32456;BME280;18912;43.270;27.942;2022-08-19T01:55:13;97701.22;;;24.09;69.03
32456;BME280;18912;43.270;27.942;2022-08-19T01:57:41;97695.63;;;24.14;68.55
32456;BME280;18912;43.270;27.942;2022-08-19T02:00:11;97690.38;;;24.13;68.56
32456;BME280;18912;43.270;27.942;2022-08-19T02:02:40;97694.19;;;24.17;67.90
32456;BME280;18912;43.270;27.942;2022-08-19T02:05:06;97687.34;;;24.14;68.20
32456;BME280;18912;43.270;27.942;2022-08-19T02:07:34;97689.38;;;24.08;68.19
32456;BME280;18912;43.270;27.942;2022-08-19T02:10:09;97694.59;;;24.10;68.54
32456;BME280;18912;43.270;27.942;2022-08-19T02:12:36;97687.22;;;24.05;68.84
32456;BME280;18912;43.270;27.942;2022-08-19T02:15:03;97685.78;;;24.08;69.15
32456;BME280;18912;43.270;27.942;2022-08-19T02:17:30;97684.38;;;24.11;69.09
32456;BME280;18912;43.270;27.942;2022-08-19T02:19:56;97682.06;;;23.99;69.33
32456;BME280;18912;43.270;27.942;2022-08-19T02:22:22;97668.78;;;24.01;69.04
32456;BME280;18912;43.270;27.942;2022-08-19T02:24:48;97679.84;;;24.01;68.89
32456;BME280;18912;43.270;27.942;2022-08-19T02:27:14;97667.69;;;24.02;68.53
32456;BME280;18912;43.270;27.942;2022-08-19T02:29:39;97673.41;;;24.05;68.52
32456;BME280;18912;43.270;27.942;2022-08-19T02:32:06;97675.34;;;24.05;68.44
32456;BME280;18912;43.270;27.942;2022-08-19T02:34:31;97668.50;;;24.02;68.43
32456;BME280;18912;43.270;27.942;2022-08-19T02:36:57;97666.84;;;24.01;69.06
32456;BME280;18912;43.270;27.942;2022-08-19T02:39:22;97671.81;;;23.99;69.08
32456;BME280;18912;43.270;27.942;2022-08-19T02:41:48;97670.78;;;23.95;69.06
32456;BME280;18912;43.270;27.942;2022-08-19T02:44:14;97667.75;;;23.97;68.33
32456;BME280;18912;43.270;27.942;2022-08-19T02:46:40;97674.31;;;24.01;68.33
32456;BME280;18912;43.270;27.942;2022-08-19T02:49:07;97679.19;;;23.90;68.94
32456;BME280;18912;43.270;27.942;2022-08-19T02:51:36;97676.53;;;23.85;69.17
32456;BME280;18912;43.270;27.942;2022-08-19T02:54:03;97679.38;;;23.94;69.26
32456;BME280;18912;43.270;27.942;2022-08-19T02:56:29;97668.66;;;23.92;69.32
32456;BME280;18912;43.270;27.942;2022-08-19T02:58:56;97668.03;;;23.82;69.88
32456;BME280;18912;43.270;27.942;2022-08-19T03:01:25;97673.03;;;23.80;69.79
32456;BME280;18912;43.270;27.942;2022-08-19T03:03:51;97676.06;;;23.78;69.76
32456;BME280;18912;43.270;27.942;2022-08-19T03:06:17;97678.34;;;23.76;69.39
32456;BME280;18912;43.270;27.942;2022-08-19T03:08:44;97678.72;;;23.70;69.67
32456;BME280;18912;43.270;27.942;2022-08-19T03:11:15;97685.66;;;23.67;69.73
32456;BME280;18912;43.270;27.942;2022-08-19T03:13:40;97686.16;;;23.69;69.56
32456;BME280;18912;43.270;27.942;2022-08-19T03:16:09;97690.28;;;23.72;69.78
32456;BME280;18912;43.270;27.942;2022-08-19T03:18:34;97685.66;;;23.67;69.60
32456;BME280;18912;43.270;27.942;2022-08-19T03:21:00;97686.47;;;23.68;69.68
32456;BME280;18912;43.270;27.942;2022-08-19T03:23:25;97690.94;;;23.64;69.64
32456;BME280;18912;43.270;27.942;2022-08-19T03:25:52;97695.06;;;23.66;69.37
32456;BME280;18912;43.270;27.942;2022-08-19T03:28:18;97698.84;;;23.70;69.00
32456;BME280;18912;43.270;27.942;2022-08-19T03:30:55;97699.81;;;23.79;68.71
32456;BME280;18912;43.270;27.942;2022-08-19T03:33:22;97699.81;;;23.79;68.68
32456;BME280;18912;43.270;27.942;2022-08-19T03:36:09;97701.31;;;23.72;69.30
32456;BME280;18912;43.270;27.942;2022-08-19T03:38:37;97715.31;;;23.75;69.45
32456;BME280;18912;43.270;27.942;2022-08-19T03:41:05;97713.38;;;23.76;69.48
32456;BME280;18912;43.270;27.942;2022-08-19T03:43:33;97719.72;;;23.76;69.70
32456;BME280;18912;43.270;27.942;2022-08-19T03:46:01;97721.34;;;23.77;69.57
32456;BME280;18912;43.270;27.942;2022-08-19T03:48:27;97721.47;;;23.86;69.13
32456;BME280;18912;43.270;27.942;2022-08-19T03:50:53;97729.47;;;23.87;69.19
32456;BME280;18912;43.270;27.942;2022-08-19T03:53:18;97728.03;;;23.90;69.69
32456;BME280;18912;43.270;27.942;2022-08-19T03:55:44;97735.03;;;24.01;69.17
32456;BME280;18912;43.270;27.942;2022-08-19T03:58:09;97742.44;;;24.05;69.33
32456;BME280;18912;43.270;27.942;2022-08-19T04:00:36;97744.41;;;24.19;69.24
32456;BME280;18912;43.270;27.942;2022-08-19T04:03:02;97743.09;;;24.30;69.20
32456;BME280;18912;43.270;27.942;2022-08-19T04:05:28;97737.19;;;24.36;69.01
32456;BME280;18912;43.270;27.942;2022-08-19T04:07:54;97740.56;;;24.47;68.96
32456;BME280;18912;43.270;27.942;2022-08-19T04:10:24;97743.34;;;24.60;68.98
32456;BME280;18912;43.270;27.942;2022-08-19T04:12:49;97736.75;;;24.75;68.79
32456;BME280;18912;43.270;27.942;2022-08-19T04:15:15;97740.00;;;24.90;69.92
32456;BME280;18912;43.270;27.942;2022-08-19T04:17:40;97737.84;;;25.01;69.83
32456;BME280;18912;43.270;27.942;2022-08-19T04:20:06;97743.78;;;25.08;70.05
32456;BME280;18912;43.270;27.942;2022-08-19T04:22:32;97742.72;;;25.31;69.71
32456;BME280;18912;43.270;27.942;2022-08-19T04:24:57;97749.25;;;25.49;69.83
32456;BME280;18912;43.270;27.942;2022-08-19T04:27:23;97750.22;;;25.66;69.40
32456;BME280;18912;43.270;27.942;2022-08-19T04:29:48;97746.09;;;25.77;69.16
32456;BME280;18912;43.270;27.942;2022-08-19T04:32:14;97751.19;;;25.84;68.39
32456;BME280;18912;43.270;27.942;2022-08-19T04:34:40;97751.06;;;25.89;68.02
32456;BME280;18912;43.270;27.942;2022-08-19T04:37:08;97752.44;;;26.00;67.48
32456;BME280;18912;43.270;27.942;2022-08-19T04:39:38;97755.56;;;26.21;67.37
32456;BME280;18912;43.270;27.942;2022-08-19T04:42:22;97759.03;;;26.35;66.83
32456;BME280;18912;43.270;27.942;2022-08-19T04:45:08;97753.47;;;26.57;66.21
32456;BME280;18912;43.270;27.942;2022-08-19T04:47:39;97754.81;;;26.68;65.38
32456;BME280;18912;43.270;27.942;2022-08-19T04:50:05;97757.19;;;26.83;64.91
32456;BME280;18912;43.270;27.942;2022-08-19T04:52:31;97762.16;;;27.03;64.08
32456;BME280;18912;43.270;27.942;2022-08-19T04:54:57;97768.94;;;27.28;63.35
32456;BME280;18912;43.270;27.942;2022-08-19T04:57:23;97761.97;;;27.47;62.93
32456;BME280;18912;43.270;27.942;2022-08-19T04:59:49;97762.63;;;27.44;62.52
32456;BME280;18912;43.270;27.942;2022-08-19T05:02:18;97755.13;;;27.70;61.87
32456;BME280;18912;43.270;27.942;2022-08-19T05:04:43;97756.75;;;27.80;60.89
32456;BME280;18912;43.270;27.942;2022-08-19T05:07:09;97763.47;;;27.79;61.19
32456;BME280;18912;43.270;27.942;2022-08-19T05:09:35;97762.50;;;27.92;60.39
32456;BME280;18912;43.270;27.942;2022-08-19T05:12:00;97759.84;;;28.21;59.67
32456;BME280;18912;43.270;27.942;2022-08-19T05:14:26;97767.19;;;28.34;58.53
32456;BME280;18912;43.270;27.942;2022-08-19T05:16:51;97760.69;;;28.22;58.97
32456;BME280;18912;43.270;27.942;2022-08-19T05:19:17;97770.59;;;28.48;58.15
32456;BME280;18912;43.270;27.942;2022-08-19T05:22:01;97761.91;;;28.50;57.78
32456;BME280;18912;43.270;27.942;2022-08-19T05:24:45;97773.63;;;28.81;57.17
32456;BME280;18912;43.270;27.942;2022-08-19T05:27:11;97766.34;;;28.97;56.07
32456;BME280;18912;43.270;27.942;2022-08-19T05:29:37;97763.91;;;28.96;56.16
32456;BME280;18912;43.270;27.942;2022-08-19T05:32:04;97765.69;;;29.00;55.74
32456;BME280;18912;43.270;27.942;2022-08-19T05:34:30;97765.56;;;28.97;55.33
32456;BME280;18912;43.270;27.942;2022-08-19T05:36:58;97765.56;;;29.26;54.97
32456;BME280;18912;43.270;27.942;2022-08-19T05:39:29;97753.88;;;29.62;53.79
32456;BME280;18912;43.270;27.942;2022-08-19T05:41:58;97754.25;;;29.81;53.28
32456;BME280;18912;43.270;27.942;2022-08-19T05:44:25;97755.50;;;29.92;52.81
32456;BME280;18912;43.270;27.942;2022-08-19T05:46:52;97753.44;;;29.80;52.78
32456;BME280;18912;43.270;27.942;2022-08-19T05:49:19;97750.47;;;30.18;52.06
32456;BME280;18912;43.270;27.942;2022-08-19T05:51:46;97757.97;;;30.71;50.81
32456;BME280;18912;43.270;27.942;2022-08-19T05:54:12;97742.75;;;30.80;50.52
32456;BME280;18912;43.270;27.942;2022-08-19T05:56:40;97746.19;;;31.22;49.13
32456;BME280;18912;43.270;27.942;2022-08-19T05:59:07;97746.06;;;31.55;48.42
32456;BME280;18912;43.270;27.942;2022-08-19T06:01:35;97746.25;;;31.74;48.05
32456;BME280;18912;43.270;27.942;2022-08-19T06:04:02;97743.75;;;31.84;47.54
32456;BME280;18912;43.270;27.942;2022-08-19T06:06:28;97735.44;;;32.28;46.66
32456;BME280;18912;43.270;27.942;2022-08-19T06:08:54;97751.28;;;32.63;45.99
32456;BME280;18912;43.270;27.942;2022-08-19T06:11:23;97738.44;;;32.62;45.78
32456;BME280;18912;43.270;27.942;2022-08-19T06:13:52;97735.91;;;32.30;45.95
32456;BME280;18912;43.270;27.942;2022-08-19T06:16:19;97743.69;;;32.48;45.84
32456;BME280;18912;43.270;27.942;2022-08-19T06:18:46;97727.88;;;32.56;45.53
32456;BME280;18912;43.270;27.942;2022-08-19T06:21:12;97738.13;;;32.95;45.01
32456;BME280;18912;43.270;27.942;2022-08-19T06:23:37;97734.31;;;32.87;44.75
32456;BME280;18912;43.270;27.942;2022-08-19T06:26:04;97721.94;;;32.88;45.10
32456;BME280;18912;43.270;27.942;2022-08-19T06:28:30;97732.00;;;33.40;43.93
32456;BME280;18912;43.270;27.942;2022-08-19T06:30:55;97739.31;;;33.60;42.95
32456;BME280;18912;43.270;27.942;2022-08-19T06:33:21;97728.38;;;33.04;44.04
32456;BME280;18912;43.270;27.942;2022-08-19T06:35:46;97726.81;;;33.73;42.76
32456;BME280;18912;43.270;27.942;2022-08-19T06:38:12;97725.25;;;34.33;41.45
32456;BME280;18912;43.270;27.942;2022-08-19T06:40:37;97731.09;;;34.62;40.83
32456;BME280;18912;43.270;27.942;2022-08-19T06:43:03;97733.09;;;34.43;41.06
32456;BME280;18912;43.270;27.942;2022-08-19T06:45:29;97726.34;;;34.06;41.90
32456;BME280;18912;43.270;27.942;2022-08-19T06:47:55;97735.25;;;33.57;42.59
32456;BME280;18912;43.270;27.942;2022-08-19T06:50:24;97731.00;;;33.98;42.00
32456;BME280;18912;43.270;27.942;2022-08-19T06:52:49;97739.44;;;34.40;40.98
32456;BME280;18912;43.270;27.942;2022-08-19T06:55:15;97744.28;;;35.04;40.12
32456;BME280;18912;43.270;27.942;2022-08-19T06:57:41;97739.31;;;35.42;39.02
32456;BME280;18912;43.270;27.942;2022-08-19T07:00:08;97740.97;;;35.21;39.47
32456;BME280;18912;43.270;27.942;2022-08-19T07:02:39;97741.44;;;35.49;39.37
32456;BME280;18912;43.270;27.942;2022-08-19T07:05:05;97744.25;;;35.75;38.23
32456;BME280;18912;43.270;27.942;2022-08-19T07:07:30;97742.78;;;35.85;38.19
32456;BME280;18912;43.270;27.942;2022-08-19T07:09:56;97750.16;;;35.96;38.47
32456;BME280;18912;43.270;27.942;2022-08-19T07:12:22;97734.91;;;35.97;38.21
32456;BME280;18912;43.270;27.942;2022-08-19T07:14:47;97738.75;;;36.15;37.83
32456;BME280;18912;43.270;27.942;2022-08-19T07:17:14;97740.94;;;36.62;36.53
32456;BME280;18912;43.270;27.942;2022-08-19T07:19:41;97741.34;;;37.01;35.68
32456;BME280;18912;43.270;27.942;2022-08-19T07:22:09;97741.97;;;37.27;35.83
32456;BME280;18912;43.270;27.942;2022-08-19T07:24:35;97740.53;;;37.44;35.94
32456;BME280;18912;43.270;27.942;2022-08-19T07:27:03;97735.78;;;37.55;35.50
32456;BME280;18912;43.270;27.942;2022-08-19T07:29:31;97739.22;;;37.92;34.93
32456;BME280;18912;43.270;27.942;2022-08-19T07:31:58;97725.34;;;37.63;35.34
32456;BME280;18912;43.270;27.942;2022-08-19T07:34:25;97742.44;;;37.87;34.78
32456;BME280;18912;43.270;27.942;2022-08-19T07:36:52;97745.66;;;37.82;34.94
32456;BME280;18912;43.270;27.942;2022-08-19T07:39:21;97750.63;;;38.17;33.95
32456;BME280;18912;43.270;27.942;2022-08-19T07:41:47;97736.28;;;38.43;33.30
32456;BME280;18912;43.270;27.942;2022-08-19T07:44:14;97742.03;;;38.78;33.53
32456;BME280;18912;43.270;27.942;2022-08-19T07:46:43;97738.00;;;39.00;32.82
32456;BME280;18912;43.270;27.942;2022-08-19T07:49:11;97735.22;;;39.07;32.00
32456;BME280;18912;43.270;27.942;2022-08-19T07:52:07;97746.09;;;39.23;32.18
32456;BME280;18912;43.270;27.942;2022-08-19T07:54:36;97740.47;;;39.16;32.08
32456;BME280;18912;43.270;27.942;2022-08-19T07:57:03;97742.06;;;39.31;32.35
32456;BME280;18912;43.270;27.942;2022-08-19T07:59:29;97739.22;;;39.03;31.79
32456;BME280;18912;43.270;27.942;2022-08-19T08:01:56;97730.38;;;39.15;31.68
32456;BME280;18912;43.270;27.942;2022-08-19T08:04:22;97734.81;;;39.37;31.30
32456;BME280;18912;43.270;27.942;2022-08-19T08:07:07;97746.53;;;39.36;31.30
32456;BME280;18912;43.270;27.942;2022-08-19T08:09:52;97746.94;;;39.34;31.30
32456;BME280;18912;43.270;27.942;2022-08-19T08:12:38;97740.44;;;39.69;30.95
32456;BME280;18912;43.270;27.942;2022-08-19T08:15:13;97729.94;;;39.69;31.01
32456;BME280;18912;43.270;27.942;2022-08-19T08:17:45;97733.59;;;39.59;31.01
32456;BME280;18912;43.270;27.942;2022-08-19T08:20:11;97737.56;;;40.00;30.65
32456;BME280;18912;43.270;27.942;2022-08-19T08:22:37;97746.38;;;40.20;30.05
32456;BME280;18912;43.270;27.942;2022-08-19T08:25:25;97741.22;;;39.76;30.74
32456;BME280;18912;43.270;27.942;2022-08-19T08:27:51;97742.00;;;39.84;30.18
32456;BME280;18912;43.270;27.942;2022-08-19T08:30:20;97730.25;;;40.14;30.50
32456;BME280;18912;43.270;27.942;2022-08-19T08:32:47;97738.72;;;40.17;30.57
32456;BME280;18912;43.270;27.942;2022-08-19T08:35:14;97726.63;;;40.09;30.06
32456;BME280;18912;43.270;27.942;2022-08-19T08:37:40;97720.19;;;39.84;30.84
32456;BME280;18912;43.270;27.942;2022-08-19T08:40:07;97726.56;;;40.17;30.07
32456;BME280;18912;43.270;27.942;2022-08-19T08:42:40;97733.72;;;40.49;29.33
32456;BME280;18912;43.270;27.942;2022-08-19T08:45:12;97732.91;;;40.56;28.55
32456;BME280;18912;43.270;27.942;2022-08-19T08:47:41;97727.34;;;40.31;29.42
32456;BME280;18912;43.270;27.942;2022-08-19T08:50:33;97730.63;;;40.19;28.95
32456;BME280;18912;43.270;27.942;2022-08-19T08:53:16;97729.44;;;40.92;28.55
32456;BME280;18912;43.270;27.942;2022-08-19T08:55:44;97726.50;;;41.07;27.99
32456;BME280;18912;43.270;27.942;2022-08-19T08:58:17;97731.81;;;41.01;28.43
32456;BME280;18912;43.270;27.942;2022-08-19T09:00:48;97729.59;;;40.64;28.12
32456;BME280;18912;43.270;27.942;2022-08-19T09:03:26;97733.25;;;40.65;28.82
32456;BME280;18912;43.270;27.942;2022-08-19T09:06:07;97728.25;;;40.90;28.37
32456;BME280;18912;43.270;27.942;2022-08-19T09:11:19;97737.50;;;40.97;28.02
32456;BME280;18912;43.270;27.942;2022-08-19T09:16:25;97740.38;;;41.42;28.34
32456;BME280;18912;43.270;27.942;2022-08-19T09:19:00;97737.88;;;41.03;28.46
32456;BME280;18912;43.270;27.942;2022-08-19T09:21:26;97743.66;;;41.40;27.90
32456;BME280;18912;43.270;27.942;2022-08-19T09:23:52;97738.50;;;41.72;26.57
32456;BME280;18912;43.270;27.942;2022-08-19T09:26:20;97745.53;;;42.02;26.65
32456;BME280;18912;43.270;27.942;2022-08-19T09:28:50;97743.31;;;41.79;26.73
32456;BME280;18912;43.270;27.942;2022-08-19T09:31:19;97745.09;;;41.62;27.48
32456;BME280;18912;43.270;27.942;2022-08-19T09:33:46;97747.16;;;41.07;27.87
32456;BME280;18912;43.270;27.942;2022-08-19T09:36:14;97748.56;;;40.78;28.25
32456;BME280;18912;43.270;27.942;2022-08-19T09:38:40;97745.09;;;41.08;27.32
32456;BME280;18912;43.270;27.942;2022-08-19T09:41:09;97745.47;;;41.20;27.04
32456;BME280;18912;43.270;27.942;2022-08-19T09:43:36;97742.53;;;41.75;26.55
32456;BME280;18912;43.270;27.942;2022-08-19T09:46:04;97744.09;;;41.83;26.55
32456;BME280;18912;43.270;27.942;2022-08-19T09:48:32;97747.41;;;41.74;26.84
32456;BME280;18912;43.270;27.942;2022-08-19T09:51:04;97743.56;;;41.92;26.58
32456;BME280;18912;43.270;27.942;2022-08-19T09:53:32;97750.34;;;41.13;27.01
32456;BME280;18912;43.270;27.942;2022-08-19T09:55:57;97748.50;;;40.85;27.64
32456;BME280;18912;43.270;27.942;2022-08-19T09:58:23;97746.88;;;41.42;26.26
32456;BME280;18912;43.270;27.942;2022-08-19T10:00:56;97756.13;;;41.94;26.75
32456;BME280;18912;43.270;27.942;2022-08-19T10:03:22;97748.94;;;41.82;26.30
32456;BME280;18912;43.270;27.942;2022-08-19T10:05:48;97755.75;;;41.48;26.32
32456;BME280;18912;43.270;27.942;2022-08-19T10:08:19;97746.91;;;41.39;26.37
32456;BME280;18912;43.270;27.942;2022-08-19T10:10:46;97745.53;;;41.57;26.74
32456;BME280;18912;43.270;27.942;2022-08-19T10:13:13;97742.19;;;41.18;27.41
32456;BME280;18912;43.270;27.942;2022-08-19T10:15:39;97754.00;;;40.44;27.62
32456;BME280;18912;43.270;27.942;2022-08-19T10:18:06;97749.56;;;40.40;27.28
32456;BME280;18912;43.270;27.942;2022-08-19T10:20:31;97747.41;;;40.65;27.40
32456;BME280;18912;43.270;27.942;2022-08-19T10:22:57;97742.09;;;39.63;28.98
32456;BME280;18912;43.270;27.942;2022-08-19T10:25:25;97745.31;;;39.61;29.11
32456;BME280;18912;43.270;27.942;2022-08-19T10:27:52;97752.50;;;40.01;28.32
32456;BME280;18912;43.270;27.942;2022-08-19T10:30:18;97752.53;;;39.97;27.06
32456;BME280;18912;43.270;27.942;2022-08-19T10:32:44;97755.75;;;39.92;28.57
32456;BME280;18912;43.270;27.942;2022-08-19T10:35:11;97740.38;;;40.07;28.87
32456;BME280;18912;43.270;27.942;2022-08-19T10:37:38;97743.25;;;39.79;28.55
32456;BME280;18912;43.270;27.942;2022-08-19T10:40:06;97745.59;;;40.20;28.10
32456;BME280;18912;43.270;27.942;2022-08-19T10:42:34;97751.13;;;40.51;27.86
32456;BME280;18912;43.270;27.942;2022-08-19T10:44:59;97750.38;;;40.40;27.72
32456;BME280;18912;43.270;27.942;2022-08-19T10:47:25;97743.63;;;40.02;28.24
32456;BME280;18912;43.270;27.942;2022-08-19T10:49:51;97746.84;;;39.90;28.67
32456;BME280;18912;43.270;27.942;2022-08-19T10:52:35;97752.50;;;40.12;27.93
32456;BME280;18912;43.270;27.942;2022-08-19T10:55:06;97752.53;;;39.83;28.12
32456;BME280;18912;43.270;27.942;2022-08-19T10:57:51;97741.25;;;39.45;28.56
32456;BME280;18912;43.270;27.942;2022-08-19T11:00:19;97758.22;;;39.48;28.65
32456;BME280;18912;43.270;27.942;2022-08-19T11:02:45;97758.22;;;39.69;28.22
32456;BME280;18912;43.270;27.942;2022-08-19T11:05:11;97752.16;;;39.67;28.08
32456;BME280;18912;43.270;27.942;2022-08-19T11:07:38;97734.78;;;39.48;28.62
32456;BME280;18912;43.270;27.942;2022-08-19T11:10:04;97745.31;;;39.19;28.58
32456;BME280;18912;43.270;27.942;2022-08-19T11:12:30;97748.06;;;38.84;29.21
32456;BME280;18912;43.270;27.942;2022-08-19T11:14:55;97753.72;;;38.84;29.54
32456;BME280;18912;43.270;27.942;2022-08-19T11:17:21;97746.84;;;38.78;29.43
32456;BME280;18912;43.270;27.942;2022-08-19T11:19:49;97747.66;;;38.68;29.39
32456;BME280;18912;43.270;27.942;2022-08-19T11:22:14;97753.31;;;38.78;29.19
32456;BME280;18912;43.270;27.942;2022-08-19T11:24:40;97746.19;;;38.09;34.00
32456;BME280;18912;43.270;27.942;2022-08-19T11:27:07;97758.56;;;37.90;35.40
32456;BME280;18912;43.270;27.942;2022-08-19T11:29:35;97743.16;;;36.83;37.15
32456;BME280;18912;43.270;27.942;2022-08-19T11:32:07;97742.84;;;36.88;36.38
32456;BME280;18912;43.270;27.942;2022-08-19T11:34:34;97730.28;;;36.12;38.02
32456;BME280;18912;43.270;27.942;2022-08-19T11:37:01;97724.63;;;35.04;41.70
32456;BME280;18912;43.270;27.942;2022-08-19T11:39:27;97733.63;;;34.94;41.93
32456;BME280;18912;43.270;27.942;2022-08-19T11:41:53;97727.97;;;34.67;42.87
32456;BME280;18912;43.270;27.942;2022-08-19T11:44:19;97731.69;;;33.95;43.62
32456;BME280;18912;43.270;27.942;2022-08-19T11:46:45;97732.97;;;33.98;43.83
32456;BME280;18912;43.270;27.942;2022-08-19T11:49:13;97720.69;;;33.86;44.68
32456;BME280;18912;43.270;27.942;2022-08-19T11:51:38;97732.47;;;33.42;45.70
32456;BME280;18912;43.270;27.942;2022-08-19T11:54:05;97724.44;;;33.25;45.09
32456;BME280;18912;43.270;27.942;2022-08-19T11:56:31;97716.56;;;32.95;46.01
32456;BME280;18912;43.270;27.942;2022-08-19T11:58:57;97718.53;;;32.36;47.46
32456;BME280;18912;43.270;27.942;2022-08-19T12:01:24;97716.34;;;32.57;48.08
32456;BME280;18912;43.270;27.942;2022-08-19T12:03:52;97728.44;;;32.61;47.94
32456;BME280;18912;43.270;27.942;2022-08-19T12:06:20;97724.63;;;32.26;49.46
32456;BME280;18912;43.270;27.942;2022-08-19T12:08:49;97720.22;;;32.84;47.65
32456;BME280;18912;43.270;27.942;2022-08-19T12:11:15;97718.63;;;32.98;48.02
32456;BME280;18912;43.270;27.942;2022-08-19T12:13:41;97710.47;;;32.93;47.52
32456;BME280;18912;43.270;27.942;2022-08-19T12:16:17;97724.19;;;33.30;47.42
32456;BME280;18912;43.270;27.942;2022-08-19T12:18:43;97714.25;;;32.70;49.33
32456;BME280;18912;43.270;27.942;2022-08-19T12:21:15;97713.66;;;32.33;49.32
32456;BME280;18912;43.270;27.942;2022-08-19T12:23:42;97727.88;;;32.28;49.52
32456;BME280;18912;43.270;27.942;2022-08-19T12:26:09;97720.66;;;32.55;49.26
32456;BME280;18912;43.270;27.942;2022-08-19T12:28:37;97716.81;;;32.04;49.64
32456;BME280;18912;43.270;27.942;2022-08-19T12:31:03;97727.06;;;32.28;48.98
32456;BME280;18912;43.270;27.942;2022-08-19T12:33:29;97714.84;;;31.65;49.84
32456;BME280;18912;43.270;27.942;2022-08-19T12:36:00;97718.59;;;31.45;51.16
32456;BME280;18912;43.270;27.942;2022-08-19T12:38:26;97721.84;;;31.35;51.40
32456;BME280;18912;43.270;27.942;2022-08-19T12:40:52;97717.31;;;31.54;50.47
32456;BME280;18912;43.270;27.942;2022-08-19T12:43:18;97719.78;;;31.07;51.57
32456;BME280;18912;43.270;27.942;2022-08-19T12:45:45;97726.41;;;31.03;52.45
32456;BME280;18912;43.270;27.942;2022-08-19T12:48:11;97715.66;;;30.69;53.01
32456;BME280;18912;43.270;27.942;2022-08-19T12:50:41;97715.59;;;30.89;53.06
32456;BME280;18912;43.270;27.942;2022-08-19T12:53:07;97717.34;;;31.06;52.39
32456;BME280;18912;43.270;27.942;2022-08-19T12:55:32;97718.28;;;30.98;53.38
32456;BME280;18912;43.270;27.942;2022-08-19T12:57:58;97716.41;;;31.38;50.93
32456;BME280;18912;43.270;27.942;2022-08-19T13:00:26;97723.97;;;31.38;51.72